Terminal Aerodrome Forecast
Issued by NWS

Home | Current Version | Previous Version | Text Only | Print | Product List | Glossary On
Versions: 1 2 3 4 5 6 7 8 9 10 11 12 13 14 15 16 17
515
FTUS46 KSTO 101120
TAFSMF
TAF
KSMF 101120Z 1012/1112 VRB04KT P6SM SCT250
      TEMPO 1014/1016 3SM BR MIFG=

USA.gov is the U.S. government's official web portal to all federal, state and local government web resources and services.